Stations météo

Publicité
Mont Aigoual, France (7560): Température de l'air & dewpoint: 25.10.2020 23:00:00 - 31.10.2020 23:00:00 (CET)Mont Aigoual, France (7560): Vitesse du vent & gusts: 25.10.2020 23:00:00 - 31.10.2020 23:00:00 (CET)Mont Aigoual, France (7560): Direction du vent: 25.10.2020 23:00:00 - 31.10.2020 23:00:00 (CET)Mont Aigoual, France (7560): visibility: 25.10.2020 23:00:00 - 31.10.2020 23:00:00 (CET)Mont Aigoual, France (7560): Quantités de précipitations: 25.10.2020 23:00:00 - 31.10.2020 23:00:00 (CET)
Date & Time tt [°C] td [°C] ff [km/h] ff [knt] fx [km/h] fx [knt] dd vv [km] rr [mm]
31.10.2020 23:00:00 9,8 -1,9 22 12 31 17 WNW 20 0,0
31.10.2020 22:00:00 12,0 -9,1 21 11 41 22 WNW 20 0,0
31.10.2020 21:00:00 8,8 3,6 33 18 43 23 WNW 20 0,0
31.10.2020 20:00:00 11,9 -5,6 27 14 40 21 NW 20 0,0
31.10.2020 19:00:00 11,2 2,0 32 17 37 20 NW 20 0,0
31.10.2020 18:00:00 12,5 1,5 22 12 26 14 NW 20 0,0
31.10.2020 17:00:00 14,8 -3,6 16 9 20 11 NW 20 0,0
31.10.2020 16:00:00 15,8 -0,5 9 5 21 11 W 20 0,0
31.10.2020 15:00:00 16,3 3,4 10 5 22 12 S 20 0,0
31.10.2020 14:00:00 16,0 2,4 11 6 25 13 S 20 0,0
31.10.2020 13:00:00 15,8 3,9 9 5 29 15 S 20 0,0
31.10.2020 12:00:00 14,7 2,2 18 10 31 17 S 20 0,0
31.10.2020 11:00:00 14,0 1,6 20 11 33 18 S 20 0,0
31.10.2020 10:00:00 13,6 0,9 19 11 32 18 SSW 20 0,0
31.10.2020 09:00:00 13,9 -2,5 21 12 31 17 SSW 20 0,0
31.10.2020 08:00:00 13,3 -6,9 26 14 35 19 SW 20 0,0
31.10.2020 07:00:00 12,7 -7,4 21 11 31 17 SSW 20 0,0
31.10.2020 06:00:00 12,2 -5,3 17 9 22 12 SSW 20 0,0
31.10.2020 05:00:00 12,5 -6,0 14 8 18 10 SSW 20 0,0
31.10.2020 04:00:00 12,9 -6,2 11 6 15 8 SSW 20 0,0
31.10.2020 03:00:00 13,1 -7,1 8 4 10 5 SSW 20 0,0
31.10.2020 02:00:00 13,1 -4,6 4 2 12 6 WSW 20 0,0
31.10.2020 01:00:00 13,1 -1,7 7 4 11 6 WSW 20 0,0
31.10.2020 00:00:00 12,9 -0,1 5 3 8 4 SW 20 0,0
30.10.2020 23:00:00 12,4 2,5 6 3 11 6 SW 20 0,0
30.10.2020 22:00:00 12,5 4,0 8 4 13 7 S 20 0,0
30.10.2020 21:00:00 12,6 4,0 10 5 15 8 SSE 20 0,0
30.10.2020 20:00:00 12,7 3,4 10 6 15 8 NE 20 0,0
30.10.2020 19:00:00 12,9 2,7 14 8 19 11 N 20 0,0
30.10.2020 18:00:00 13,7 -0,7 15 8 18 10 N 20 0,0
30.10.2020 17:00:00 14,4 -0,5 11 6 15 8 NNW 20 0,0
30.10.2020 16:00:00 14,6 1,8 10 5 15 8 N 20 0,0
30.10.2020 15:00:00 15,2 1,3 8 5 19 11 NNW 20 0,0
30.10.2020 14:00:00 14,8 2,0 13 7 21 11 NW 20 0,0
30.10.2020 13:00:00 14,7 2,6 9 5 21 12 NNW 20 0,0
30.10.2020 12:00:00 14,1 2,6 7 4 23 12 NW 20 0,0
30.10.2020 11:00:00 13,4 0,7 12 6 27 14 NNW 20 0,0
30.10.2020 10:00:00 12,9 0,6 21 11 42 23 N 20 0,0
30.10.2020 09:00:00 12,1 0,5 34 18 46 25 NNW 20 0,0
30.10.2020 08:00:00 11,3 1,0 37 20 45 25 NNW 20 0,0
30.10.2020 07:00:00 10,8 1,1 37 20 43 23 NNW 20 0,0
30.10.2020 06:00:00 10,3 1,1 32 18 35 19 NNW 20 0,0
30.10.2020 05:00:00 10,3 0,9 31 17 32 18 NW 20 0,0
30.10.2020 04:00:00 9,8 0,4 25 14 36 19 NW 20 0,0
30.10.2020 03:00:00 9,5 1,4 31 17 37 20 NW 20 0,0
30.10.2020 02:00:00 9,2 1,6 35 19 40 21 NW 20 0,0
30.10.2020 01:00:00 8,8 1,9 32 17 35 19 NW 20 0,0
30.10.2020 00:00:00 8,6 2,4 32 18 45 24 NW 20 0,0
29.10.2020 23:00:00 8,6 2,8 36 19 45 24 NNW 20 0,0
29.10.2020 22:00:00 7,0 4,1 33 18 42 23 N 20 0,0
29.10.2020 21:00:00 5,2 5,1 29 16 43 23 N 20 0,0
29.10.2020 20:00:00 5,3 5,3 36 19 58 31 NNW 20 0,0
29.10.2020 19:00:00 5,0 5,0 40 22 65 35 NNW 0,4 0,0
29.10.2020 18:00:00 5,3 5,3 51 28 66 36 N 0,2 0,0
29.10.2020 17:00:00 5,5 5,5 35 19 56 30 NNW 0,1 0,0
29.10.2020 16:00:00 5,8 5,8 29 16 54 29 N 0,5 0,0
29.10.2020 15:00:00 5,7 5,7 33 18 71 38 NW 0,4 0,0
29.10.2020 14:00:00 5,6 5,6 50 27 85 46 NNW 0,2 0,0
29.10.2020 13:00:00 5,2 5,2 59 32 93 50 NNW 0,2 0,0
29.10.2020 12:00:00 4,4 4,4 71 38 105 57 NW 0,1 0,0
29.10.2020 11:00:00 4,0 4,0 75 40 95 52 NW 0,1 0,0
29.10.2020 10:00:00 3,7 3,7 72 39 92 50 NW 0,1 0,0
29.10.2020 09:00:00 3,7 3,7 57 31 81 44 NW - 0,2
29.10.2020 08:00:00 4,0 4,0 39 21 70 38 NW 0,1 0,0
29.10.2020 07:00:00 3,7 3,7 52 28 94 51 NW 0,1 0,0
29.10.2020 06:00:00 3,6 3,6 58 32 89 48 NW 0,1 0,0
29.10.2020 05:00:00 3,6 3,6 61 33 91 49 NW 0,1 0,0
29.10.2020 04:00:00 3,6 3,6 61 33 92 50 NW 0,1 0,0
29.10.2020 03:00:00 3,6 3,6 57 31 92 50 NW 0,1 0,0
29.10.2020 02:00:00 3,5 3,5 61 33 92 50 NW 0,1 0,0
29.10.2020 01:00:00 3,5 3,5 56 30 93 50 NW 0,1 0,0
29.10.2020 00:00:00 3,8 3,8 56 30 90 48 NW 0,1 0,0
28.10.2020 23:00:00 4,1 4,1 57 31 89 48 WNW 0,1 0,2
28.10.2020 22:00:00 4,3 4,3 43 23 76 41 NW 0,1 0,0
28.10.2020 21:00:00 4,6 4,6 35 19 68 37 NW 0,1 0,0
28.10.2020 20:00:00 4,9 4,9 45 25 73 39 NW 0,1 0,2
28.10.2020 19:00:00 5,0 5,0 37 20 61 33 NW 0,1 0,0
28.10.2020 18:00:00 5,6 5,6 36 19 55 30 WNW 0,1 0,0
28.10.2020 17:00:00 5,8 5,8 33 18 46 25 WNW 0,1 0,0
28.10.2020 16:00:00 6,2 6,2 23 13 41 22 WNW 0,1 0,0
28.10.2020 15:00:00 6,8 6,8 25 14 42 23 NW 0,2 0,0
28.10.2020 14:00:00 6,9 6,9 17 9 35 19 W 0,3 0,0
28.10.2020 13:00:00 7,1 7,1 19 10 31 17 WNW 0,2 0,0
28.10.2020 12:00:00 7,3 7,3 8 5 29 16 SW 0,1 0,2
28.10.2020 11:00:00 7,1 7,1 15 8 33 18 W 0,4 0,0
28.10.2020 10:00:00 7,0 7,0 16 9 36 20 W 0,2 -
28.10.2020 09:00:00 - - - - - - - - -
28.10.2020 08:00:00 6,3 6,3 31 17 48 26 NW 0,1 0,0
28.10.2020 07:00:00 5,6 5,6 28 15 47 25 NW 0,1 0,0
28.10.2020 06:00:00 5,6 5,6 31 17 61 33 NNW 0,1 0,0
28.10.2020 05:00:00 5,5 5,5 43 23 62 34 NNW 0,2 0,0
28.10.2020 04:00:00 5,6 5,6 42 23 57 31 NW 0,1 0,0
28.10.2020 03:00:00 5,4 5,4 42 23 57 31 NW 0,1 0,0
28.10.2020 02:00:00 5,4 5,4 43 23 65 35 NW 0,2 0,0
28.10.2020 01:00:00 3,8 3,8 53 29 66 36 NW 0,1 0,0
28.10.2020 00:00:00 3,2 3,2 53 29 63 34 WNW 0,1 0,0
27.10.2020 23:00:00 3,0 3,0 50 27 67 36 WNW 0,1 0,0
27.10.2020 22:00:00 2,9 2,9 48 26 65 35 NW 0,1 0,0
27.10.2020 21:00:00 2,2 2,2 37 20 66 35 WNW 0,4 0,0
27.10.2020 20:00:00 2,2 2,2 53 29 69 38 NW 0,5 0,0
27.10.2020 19:00:00 2,6 2,6 55 30 71 38 NW 0,3 0,0
27.10.2020 18:00:00 2,7 2,7 44 24 59 32 WNW 0,2 0,0
27.10.2020 17:00:00 2,7 2,7 31 17 49 26 WNW 0,2 0,0
27.10.2020 16:00:00 2,6 2,6 22 12 42 23 NW 0,1 0,0
27.10.2020 15:00:00 2,6 2,6 22 12 47 26 WNW 0,7 0,0
27.10.2020 14:00:00 2,3 2,3 29 16 49 26 NW 0,2 0,0
27.10.2020 13:00:00 1,7 1,7 27 14 51 28 NW 0,1 0,0
27.10.2020 12:00:00 1,2 1,2 23 12 49 27 NNW 0,1 0,0
27.10.2020 11:00:00 0,5 0,5 32 17 55 30 NW 0,1 0,0
27.10.2020 10:00:00 0,2 0,2 37 20 62 33 NW 0,1 0,0
27.10.2020 09:00:00 0,1 0,1 35 19 73 39 NNW 0,1 0,0
27.10.2020 08:00:00 0,0 0,0 35 19 69 38 NNW 0,1 0,6
27.10.2020 07:00:00 0,0 0,0 42 23 81 44 NW 0,1 0,0
27.10.2020 06:00:00 0,0 0,0 48 26 81 44 NW 0,1 0,0
27.10.2020 05:00:00 -0,1 -0,1 53 29 93 50 NW 0,1 0,0
27.10.2020 04:00:00 -0,1 -0,1 59 32 93 50 NW 0,2 0,0
27.10.2020 03:00:00 0,0 0,0 63 34 100 54 NW 0,1 0,0
27.10.2020 02:00:00 0,0 0,0 58 31 103 56 NW 0,1 0,0
27.10.2020 01:00:00 0,1 0,1 64 35 99 54 NW 0,1 0,0
27.10.2020 00:00:00 -0,1 -0,1 50 27 95 52 NW 0,1 0,0
26.10.2020 23:00:00 0,0 0,0 56 30 102 55 NW 0,1 0,0
26.10.2020 22:00:00 0,1 0,1 59 32 109 59 NNW 0,1 0,4
26.10.2020 21:00:00 0,1 0,1 70 38 111 60 NW 0,1 0,2
26.10.2020 20:00:00 0,2 0,2 58 31 98 53 NNW 0,1 0,2
26.10.2020 19:00:00 0,5 0,5 46 25 86 46 NNW 0,1 0,4
26.10.2020 18:00:00 0,5 0,5 50 27 89 48 NNW 0,1 0,0
26.10.2020 17:00:00 0,5 0,5 45 24 86 47 NNW 0,2 0,0
26.10.2020 16:00:00 0,9 0,9 38 21 75 41 NNW 0,2 0,2
26.10.2020 15:00:00 1,1 1,1 39 21 80 43 NNW 0,2 0,0
26.10.2020 14:00:00 1,1 1,1 48 26 75 41 NNW 0,2 0,2
26.10.2020 13:00:00 1,6 1,6 45 24 86 47 NNW 0,1 0,0
26.10.2020 12:00:00 1,1 1,1 58 31 86 47 NW 0,3 0,0
26.10.2020 11:00:00 1,0 1,0 48 26 73 39 NNW 0,2 0,0
26.10.2020 10:00:00 0,7 0,7 45 24 83 45 NNW 0,2 0,2
26.10.2020 09:00:00 0,8 0,8 44 24 71 38 NW 0,3 0,0
26.10.2020 08:00:00 0,5 0,5 52 28 73 40 NW 0,5 0,0
26.10.2020 07:00:00 0,3 0,3 53 29 79 43 NNW 0,5 0,0
26.10.2020 06:00:00 0,3 0,3 58 31 79 43 NW 0,2 0,0
26.10.2020 05:00:00 0,4 0,4 54 29 85 46 NNW 0,2 0,0
26.10.2020 04:00:00 0,4 0,4 59 32 85 46 NNW 0,3 0,2
26.10.2020 03:00:00 0,7 0,7 46 25 71 38 NW 0,2 2,0
26.10.2020 02:00:00 1,0 1,0 50 27 81 44 NNW 0,3 0,6
26.10.2020 01:00:00 3,1 3,1 25 14 40 22 NNW 0,1 0,0
26.10.2020 00:00:00 4,3 4,3 21 11 29 16 NW - 0,0
25.10.2020 23:00:00 4,8 4,8 15 8 31 17 W 0,3 0,0

tt = Température de l'air
td = dewpoint
ff = Vitesse du vent
fx = gusts
dd = Direction du vent
vv = visibility
rr = Quantités de précipitations

stations d'obs. à proximité